Latest Coastal Weather Observations for Cape Nelson

IDS60701

Issued at 9:45 am CDT Wednesday 26 November 2014 (issued every 10 minutes, with the page automatically refreshed every 10 minutes)

About coastal observations | Map of coastal stations | Coastal observations for SA | Marine services | Other Formats
Station Details ID: 090184 Name: CAPE NELSON LIGHTHOUSE Lat: -38.43 Lon: 141.54 Height: 45.4 m
Data from the previous 72 hours. | See also: Recent months at Cape Nelson
Date/Time
CDT
Temp

°C
Wind Pressure Rain
since 9am
mm
Weather Cloud Vis
km
Sea
Height
m
Swell
Dir
 
Speed
knots
Gust
knots
hPa Trend Height
m
Period
s
Dir
26/09:30am 14.8 W 15 19 1022.5 - 0.0 - - - - - - -
26/09:00am 15.1 W 13 18 1022.2 - 0.0 - - - - - - -
26/08:30am 14.8 W 11 18 1021.9 - 0.2 - - - - - - -
26/08:00am 14.5 W 14 19 1021.7 - 0.2 - - - - - - -
26/07:30am 14.2 W 12 18 1021.5 - 0.2 - - - - - - -
26/07:00am 14.0 W 13 17 1021.1 - 0.2 - - - - - - -
26/06:30am 13.9 W 15 19 1021.1 - 0.2 - - - - - - -
26/06:00am 13.8 W 13 18 1020.9 - 0.2 - - - - - - -
26/05:30am 13.8 W 16 20 1020.5 - 0.2 - - - - - - -
26/05:00am 13.9 W 15 21 1020.3 - 0.2 - - - - - - -
26/04:30am 13.7 WNW 12 21 1020.1 - 0.2 - - - - - - -
26/04:00am 13.7 NNW 10 15 1020.0 - 0.2 - - - - - - -
26/03:30am 13.8 W 13 21 1020.0 - 0.2 - - - - - - -
26/03:00am 13.8 W 12 17 1020.2 - 0.2 - - - - - - -
26/02:30am 13.6 W 14 20 1020.3 - 0.2 - - - - - - -
26/02:00am 13.6 W 17 23 1020.5 - 0.2 - - - - - - -
26/01:30am 13.7 W 15 19 1020.7 - 0.2 - - - - - - -
26/01:00am 13.4 W 11 19 1021.0 - 0.2 - - - - - - -
26/12:30am 13.7 W 12 17 1021.3 - 0.2 - - - - - - -
26/12:00am 13.7 W 12 17 1021.5 - 0.2 - - - - - - -
 
Date/Time
CDT
Temp

°C
Wind Pressure Rain
since 9am
mm
Weather Cloud Vis
km
Sea
Height
m
Swell
Dir
 
Speed
knots
Gust
knots
hPa Trend Height
m
Period
s
Dir
25/11:30pm 13.9 W 12 17 1021.5 - 0.2 - - - - - - -
25/11:00pm 13.8 W 14 20 1021.6 - 0.2 - - - - - - -
25/10:30pm 13.7 W 11 16 1021.8 - 0.2 - - - - - - -
25/10:00pm 13.7 NW 9 14 1021.8 - 0.2 - - - - - - -
25/09:30pm 13.6 N 10 18 1021.6 - 0.2 - - - - - - -
25/09:00pm 13.6 N 9 19 1021.7 - 0.2 - - - - - - -
25/08:30pm 13.5 W 13 20 1021.7 - 0.2 - - - - - - -
25/08:00pm 13.7 W 16 22 1021.6 - 0.2 - - - - - - -
25/07:30pm 13.9 W 15 21 1021.5 - 0.2 - - - - - - -
25/07:00pm 14.2 W 16 21 1021.3 - 0.2 - - - - - - -
25/06:30pm 14.5 W 17 23 1021.0 - 0.2 - - - - - - -
25/06:00pm 14.1 W 15 23 1020.7 - 0.2 - - - - - - -
25/05:30pm 14.4 W 15 23 1020.4 - 0.2 - - - - - - -
25/05:00pm 14.4 W 15 23 1020.4 - 0.2 - - - - - - -
25/04:30pm 14.8 W 19 24 1020.4 - 0.2 - - - - - - -
25/04:00pm 14.5 W 18 24 1020.4 - 0.2 - - - - - - -
25/03:30pm 14.4 W 20 28 1020.5 - 0.2 - - - - - - -
25/03:00pm 14.0 W 17 23 1020.6 - 0.2 - - - - - - -
25/02:30pm 14.9 W 15 23 1020.4 - 0.2 - - - - - - -
25/02:05pm 14.2 W 19 29 1020.6 - 0.2 - - - - - - -
25/02:00pm 14.6 W 18 27 1020.5 - 0.2 - - - - - - -
25/01:30pm 14.8 W 19 25 1020.5 - 0.2 - - - - - - -
25/01:00pm 14.5 W 15 21 1020.5 - 0.2 - - - - - - -
25/12:30pm 15.3 NW 12 18 1020.5 - 0.2 - - - - - - -
25/12:00pm 14.5 W 18 24 1020.5 - 0.0 - - - - - - -
25/11:30am 14.2 W 16 22 1020.4 - 0.0 - - - - - - -
25/11:00am 13.8 W 16 22 1020.2 - 0.0 - - - - - - -
25/10:39am 14.6 W 17 28 1020.1 - 0.0 - - - - - - -
25/10:30am 14.3 W 17 21 1020.0 - 0.0 - - - - - - -
25/10:00am 13.9 W 18 28 1019.8 - 0.0 - - - - - - -
25/09:40am 14.7 W 18 29 1019.6 - 0.0 - - - - - - -
25/09:30am 14.4 W 17 23 1019.5 - 0.0 - - - - - - -
25/09:00am 14.3 W 19 27 1019.1 - 0.0 - - - - - - -
25/08:30am 14.1 W 19 29 1018.7 - 1.8 - - - - - - -
25/08:26am 14.3 W 19 29 1018.6 - 1.8 - - - - - - -
25/08:00am 13.9 W 17 25 1018.4 - 1.8 - - - - - - -
25/07:37am 14.4 W 15 26 1018.0 - 1.8 - - - - - - -
25/07:30am 14.1 WNW 11 20 1017.8 - 1.8 - - - - - - -
25/07:00am 13.7 W 18 28 1017.5 - 1.8 - - - - - - -
25/06:30am 13.8 W 17 29 1017.2 - 1.8 - - - - - - -
25/06:25am 13.7 W 16 28 1017.2 - 1.8 - - - - - - -
25/06:00am 13.5 WNW 15 21 1016.7 - 1.8 - - - - - - -
25/05:30am 13.4 WNW 13 19 1016.2 - 1.8 - - - - - - -
25/05:11am 13.4 WNW 16 26 1015.9 - 1.8 - - - - - - -
25/05:00am 13.2 WNW 17 25 1015.7 - 1.8 - - - - - - -
25/04:43am 13.3 WNW 15 25 1015.6 - 1.8 - - - - - - -
25/04:30am 13.4 WNW 16 24 1015.6 - 1.8 - - - - - - -
25/04:10am 13.2 WNW 17 27 1015.5 - 1.8 - - - - - - -
25/04:00am 13.6 WNW 14 21 1015.3 - 1.6 - - - - - - -
25/03:30am 13.5 WNW 16 22 1015.2 - 1.6 - - - - - - -
25/03:19am 13.5 NW 13 20 1015.1 - 1.6 - - - - - - -
25/03:00am 13.6 W 21 31 1015.3 - 1.6 - - - - - - -
25/02:30am 13.6 W 17 28 1015.2 - 1.6 - - - - - - -
25/02:08am 13.5 W 19 29 1015.2 - 1.6 - - - - - - -
25/02:00am 13.5 W 20 29 1015.2 - 1.6 - - - - - - -
25/01:32am 13.8 W 19 29 1015.0 - 1.6 - - - - - - -
25/01:30am 13.7 W 20 29 1015.1 - 1.6 - - - - - - -
25/01:18am 13.9 W 19 29 1015.1 - 1.6 - - - - - - -
25/01:00am 14.0 W 24 32 1015.0 - 1.6 - - - - - - -
25/12:52am 13.9 W 22 32 1015.0 - 1.6 - - - - - - -
25/12:30am 14.0 W 22 30 1014.9 - 1.6 - - - - - - -
25/12:00am 13.9 W 21 31 1014.8 - 1.6 - - - - - - -
 
Date/Time
CDT
Temp

°C
Wind Pressure Rain
since 9am
mm
Weather Cloud Vis
km
Sea
Height
m
Swell
Dir
 
Speed
knots
Gust
knots
hPa Trend Height
m
Period
s
Dir
24/11:37pm 13.8 W 21 31 1014.7 - 1.6 - - - - - - -
24/11:30pm 13.7 W 23 31 1014.7 - 1.6 - - - - - - -
24/11:00pm 13.9 W 26 32 1014.5 - 1.6 - - - - - - -
24/10:30pm 13.9 W 22 33 1014.3 - 1.6 - - - - - - -
24/10:06pm 13.7 W 22 32 1014.2 - 1.6 - - - - - - -
24/10:00pm 13.8 W 25 32 1014.2 - 1.6 - - - - - - -
24/09:33pm 13.4 W 16 29 1013.7 - 1.6 - - - - - - -
24/09:30pm 13.6 W 12 18 1013.8 - 1.6 - - - - - - -
24/09:00pm 13.7 W 22 29 1013.7 - 1.6 - - - - - - -
24/08:52pm 13.5 W 19 29 1013.6 - 1.6 - - - - - - -
24/08:30pm 13.6 W 27 35 1013.3 - 1.6 - - - - - - -
24/08:10pm 14.3 W 23 33 1013.0 - 1.6 - - - - - - -
24/08:00pm 14.3 W 22 30 1012.9 - 1.6 - - - - - - -
24/07:46pm 14.1 W 23 35 1012.7 - 1.6 - - - - - - -
24/07:30pm 14.2 W 23 31 1012.4 - 1.6 - - - - - - -
24/07:09pm 14.7 W 23 34 1011.9 - 1.6 - - - - - - -
24/07:00pm 14.8 W 25 33 1011.8 - 1.6 - - - - - - -
24/06:31pm 14.7 W 22 32 1011.2 - 1.6 - - - - - - -
24/06:30pm 14.7 W 23 32 1011.1 - 1.6 - - - - - - -
24/06:08pm 14.8 W 24 34 1010.8 - 1.6 - - - - - - -
24/06:00pm 15.2 W 25 34 1010.7 - 1.6 - - - - - - -
24/05:52pm 15.0 W 24 34 1010.7 - 1.6 - - - - - - -
24/05:30pm 15.2 W 24 32 1010.5 - 1.6 - - - - - - -
24/05:08pm 15.2 W 24 34 1010.3 - 1.6 - - - - - - -
24/05:00pm 15.3 W 21 29 1010.4 - 1.6 - - - - - - -
24/04:45pm 15.0 W 19 29 1010.4 - 1.6 - - - - - - -
24/04:30pm 15.4 W 21 28 1010.4 - 1.6 - - - - - - -
24/04:00pm 15.1 W 19 27 1010.1 - 1.6 - - - - - - -
24/03:30pm 15.3 W 20 27 1010.2 - 1.6 - - - - - - -
24/03:18pm 15.2 W 18 28 1010.0 - 1.6 - - - - - - -
24/03:00pm 15.2 W 16 25 1009.9 - 1.6 - - - - - - -
24/02:57pm 15.1 WNW 15 25 1009.9 - 1.6 - - - - - - -
24/02:30pm 14.9 W 13 20 1009.9 - 1.6 Recent precip. - - - - - -
24/02:00pm 14.4 W 13 17 1010.0 - 1.6 - - - - - - -
24/01:30pm 13.5 W 13 18 1010.2 - 1.4 - - - - - - -
24/01:00pm 12.7 NNW 12 20 1009.6 - 1.4 - - - - - - -
24/12:31pm 13.0 WNW 17 27 1009.5 - 1.2 - - - - - - -
24/12:30pm 13.0 N 13 22 1009.6 - 1.0 - - - - - - -
24/12:00pm 16.7 W 11 15 1009.4 - 0.0 - - - - - - -
24/11:30am 17.5 W 9 13 1009.3 - 0.0 - - - - - - -
24/11:00am 16.8 W 8 13 1009.3 - 0.0 - - - - - - -
24/10:30am 16.3 W 10 13 1009.0 - 0.0 - - - - - - -
24/10:00am 15.8 W 8 10 1009.1 - 0.0 - - - - - - -
24/09:30am 16.1 WNW 5 8 1009.5 - 0.0 - - - - - - -
24/09:00am 15.0 WNW 5 7 1009.2 - 0.0 - - - - - - -
24/08:30am 15.1 W 8 10 1009.1 - 1.4 - - - - - - -
24/08:00am 14.6 N 4 7 1009.0 - 1.4 - - - - - - -
24/07:30am 14.4 N 5 6 1009.8 - 1.4 - - - - - - -
24/07:00am 14.1 N 5 8 1010.0 - 0.8 - - - - - - -
24/06:30am 14.0 NE 7 9 1008.5 - 0.6 - - - - - - -
24/06:00am 14.0 NE 5 7 1008.5 - 0.6 - - - - - - -
24/05:30am 14.5 N 5 10 1010.1 - 0.2 - - - - - - -
24/05:00am 14.6 ENE 5 6 1008.3 - 0.2 - - - - - - -
24/04:58am 14.7 ENE 4 6 1008.4 - 0.2 - - - - - - -
24/04:45am 15.1 WNW 4 10 1010.4 - 0.2 - - - - - - -
24/04:30am 14.9 CALM 0 0 1008.4 - 0.2 - - - - - - -
24/04:00am 14.3 E 5 7 1007.8 - 0.2 - - - - - - -
24/03:30am 14.5 ENE 6 7 1008.6 - 0.2 - - - - - - -
24/03:28am 14.5 ENE 6 7 1008.6 - 0.2 - - - - - - -
24/03:00am 14.8 N 5 7 1010.6 - 0.2 - - - - - - -
24/02:30am 14.5 NE 7 9 1009.1 - 0.2 - - - - - - -
24/02:00am 14.5 ENE 9 11 1009.3 - 0.2 - - - - - - -
24/01:30am 14.4 ENE 8 10 1009.8 - 0.2 - - - - - - -
24/01:00am 14.5 NE 8 9 1010.7 - 0.2 - - - - - - -
24/12:30am 14.7 NE 7 10 1011.2 - 0.2 - - - - - - -
24/12:00am 14.7 NE 7 10 1011.7 - 0.2 - - - - - - -
 
Date/Time
CDT
Temp

°C
Wind Pressure Rain
since 9am
mm
Weather Cloud Vis
km
Sea
Height
m
Swell
Dir
 
Speed
knots
Gust
knots
hPa Trend Height
m
Period
s
Dir
23/11:30pm 14.8 NNE 8 11 1012.3 - 0.0 - - - - - - -
23/11:00pm 14.8 NE 8 11 1012.2 - 0.0 - - - - - - -
23/10:30pm 14.8 NE 6 8 1012.6 - 0.0 - - - - - - -
23/10:00pm 15.0 ENE 6 8 1012.4 - 0.0 - - - - - - -
23/09:30pm 14.8 ENE 4 7 1012.4 - 0.0 - - - - - - -
23/09:00pm 14.8 E 5 7 1012.2 - 0.0 - - - - - - -
23/08:30pm 14.7 ENE 3 5 1012.2 - 0.0 - - - - - - -
23/08:00pm 15.4 N 3 5 1012.6 - 0.0 - - - - - - -
23/07:30pm 15.8 SSW 1 5 1012.1 - 0.0 - - - - - - -
23/07:00pm 16.2 SW 2 5 1012.3 - 0.0 - - - - - - -
23/06:30pm 16.3 S 5 7 1011.5 - 0.0 - - - - - - -
23/06:00pm 16.7 S 6 8 1011.6 - 0.0 - - - - - - -
23/05:30pm 17.2 S 4 8 1012.0 - 0.0 - - - - - - -
23/05:00pm 17.6 WNW 7 9 1012.4 - 0.0 - - - - - - -
23/04:30pm 18.3 WNW 7 9 1012.5 - 0.0 - - - - - - -
23/04:00pm 18.4 WNW 7 11 1012.3 - 0.0 - - - - - - -
23/03:30pm 18.7 NW 7 12 1012.1 - 0.0 - - - - - - -
23/03:00pm 18.0 W 8 13 1012.4 - 0.0 - - - - - - -
23/02:30pm 16.8 W 10 13 1012.2 - 0.0 - - - - - - -
23/02:00pm 18.8 WNW 9 12 1011.9 - 0.0 - - - - - - -
23/01:30pm 18.3 NW 6 9 1012.2 - 0.0 - - - - - - -
23/01:00pm 17.1 W 8 11 1012.2 - 0.0 - - - - - - -
23/12:30pm 17.9 WNW 8 12 1011.9 - 0.0 - - - - - - -
23/12:00pm 16.5 W 12 15 1012.3 - 0.0 - - - - - - -
23/11:30am 17.1 W 11 14 1012.6 - 0.0 - - - - - - -
23/11:00am 16.5 W 11 13 1012.6 - 0.0 - - - - - - -
23/10:30am 16.5 W 8 10 1012.6 - 0.0 - - - - - - -
23/10:00am 17.7 W 7 10 1012.7 - 0.0 - - - - - - -
23/09:30am 17.7 WNW 8 11 1013.0 - 0.0 - - - - - - -

Other Formats:

Comma delimited format used in spreadsheet applications
http://www.bom.gov.au/fwo/IDS60701/IDS60701.94826.axf

JavaScript Object Notation format (JSON) in row-major order
http://www.bom.gov.au/fwo/IDS60701/IDS60701.94826.json